createdAt,value
2023-03-26T00:00:04.359Z,634.1
2023-03-26T00:01:06.534Z,633.9
2023-03-26T00:02:09.074Z,634.4
2023-03-26T00:03:11.629Z,634.1
2023-03-26T00:04:13.633Z,634
2023-03-26T00:05:15.763Z,634.4
2023-03-26T00:06:17.961Z,634.3
2023-03-26T00:07:20.080Z,634.6
2023-03-26T00:08:22.010Z,634.9
2023-03-26T00:09:23.985Z,635.1
2023-03-26T00:10:25.863Z,635.3
2023-03-26T00:11:28.160Z,634.8
2023-03-26T00:12:30.065Z,633.9
2023-03-26T00:13:32.283Z,633.5
2023-03-26T00:14:34.282Z,633.6
2023-03-26T00:15:36.421Z,634
2023-03-26T00:16:38.705Z,634.5
2023-03-26T00:17:41.175Z,634.3
2023-03-26T00:18:43.341Z,634.8
2023-03-26T00:19:45.461Z,634.9
2023-03-26T00:20:47.554Z,635.8
2023-03-26T00:21:49.656Z,636
2023-03-26T00:22:51.606Z,635.2
2023-03-26T00:23:53.762Z,634.7
2023-03-26T00:24:55.688Z,634.8
2023-03-26T00:25:58.032Z,634.7
2023-03-26T00:27:00.299Z,635.2
2023-03-26T00:28:02.396Z,635.4
2023-03-26T00:29:05.013Z,635.3
2023-03-26T00:30:07.087Z,635.2
2023-03-26T00:31:09.349Z,635.1
2023-03-26T00:32:10.886Z,635
2023-03-26T00:33:13.174Z,635.4
2023-03-26T00:34:15.068Z,634.8
2023-03-26T00:35:16.978Z,634.9
2023-03-26T00:36:18.898Z,635.5
2023-03-26T00:37:20.809Z,635.3
2023-03-26T00:38:22.681Z,635.6
2023-03-26T00:39:25.033Z,635.5
2023-03-26T00:40:26.804Z,635.6
2023-03-26T00:41:28.883Z,635.5
2023-03-26T00:42:31.007Z,635.7
2023-03-26T00:43:32.918Z,635.1
2023-03-26T00:44:34.610Z,634.6
2023-03-26T00:45:36.491Z,634.9
2023-03-26T00:46:38.861Z,635
2023-03-26T00:47:40.931Z,636.3
2023-03-26T00:49:47.944Z,637.6
2023-03-26T00:50:50.034Z,637.4
2023-03-26T00:51:52.220Z,636.8
2023-03-26T00:52:53.950Z,636.6
2023-03-26T00:53:56.112Z,636.3
2023-03-26T00:54:58.249Z,636.8
2023-03-26T00:56:00.220Z,636.5
2023-03-26T00:57:02.717Z,636.7
2023-03-26T00:58:04.835Z,637.4
2023-03-26T00:59:07.047Z,636.7
2023-03-26T01:00:09.215Z,636.2
2023-03-26T01:01:11.610Z,636.1
2023-03-26T01:02:14.022Z,636.1
2023-03-26T01:04:22.067Z,637
2023-03-26T01:05:24.708Z,636.6
2023-03-26T01:06:26.662Z,636.5
2023-03-26T01:07:28.792Z,636.5
2023-03-26T01:08:30.951Z,635.9
2023-03-26T01:09:33.130Z,636.7
2023-03-26T01:10:35.093Z,636.6
2023-03-26T01:11:37.270Z,636.4
2023-03-26T01:12:39.393Z,636.5
2023-03-26T01:13:41.525Z,636.8
2023-03-26T01:14:43.632Z,636.5
2023-03-26T01:15:45.926Z,636.6
2023-03-26T01:16:47.716Z,636.3
2023-03-26T01:17:50.134Z,636.2
2023-03-26T01:18:52.050Z,636.5
2023-03-26T01:19:53.983Z,636.2
2023-03-26T01:20:56.163Z,636
2023-03-26T01:21:58.346Z,635.7
2023-03-26T01:23:00.443Z,636.2
2023-03-26T01:24:02.544Z,636.2
2023-03-26T01:25:04.418Z,636.7
2023-03-26T01:26:06.353Z,636.9
2023-03-26T01:27:08.434Z,636.5
2023-03-26T01:28:10.542Z,636.8
2023-03-26T01:29:12.451Z,636.5
2023-03-26T01:30:14.410Z,636.4
2023-03-26T01:31:16.153Z,636.6
2023-03-26T01:32:18.542Z,637
2023-03-26T01:33:21.136Z,637
2023-03-26T01:34:23.253Z,636.8
2023-03-26T01:35:25.416Z,636.9
2023-03-26T01:36:27.673Z,636.9
2023-03-26T01:37:29.570Z,637.2
2023-03-26T01:38:31.696Z,637.4
2023-03-26T01:39:33.607Z,637.4
2023-03-26T01:40:35.766Z,637.4
2023-03-26T01:41:37.727Z,637.5
2023-03-26T01:42:39.816Z,637.5
2023-03-26T01:43:41.712Z,637.6
2023-03-26T01:44:43.801Z,638.1
2023-03-26T01:45:45.683Z,638.3
2023-03-26T01:46:48.108Z,638.5
2023-03-26T01:47:50.459Z,638.5
2023-03-26T01:48:52.614Z,638.4
2023-03-26T01:49:54.708Z,637.9
2023-03-26T01:50:56.894Z,637.8
2023-03-26T01:51:59.136Z,638.2
2023-03-26T01:53:01.267Z,638.2
2023-03-26T01:54:03.445Z,638.1
2023-03-26T01:55:05.594Z,638.4
2023-03-26T01:56:07.519Z,638.5
2023-03-26T01:57:09.525Z,638.9
2023-03-26T01:58:11.659Z,639.1
2023-03-26T01:59:13.793Z,639.2
2023-03-26T02:00:15.711Z,639.4
2023-03-26T02:01:18.029Z,639.1
2023-03-26T02:02:20.495Z,639.4
2023-03-26T02:03:23.233Z,639.3
2023-03-26T02:04:25.286Z,640.1
2023-03-26T02:05:27.245Z,640.1
2023-03-26T02:06:29.348Z,640.1
2023-03-26T02:07:31.556Z,640.4
2023-03-26T02:08:33.662Z,640.5
2023-03-26T02:09:35.212Z,639.9
2023-03-26T02:10:37.119Z,640.7
2023-03-26T02:11:38.824Z,640.2
2023-03-26T02:12:40.925Z,640.4
2023-03-26T02:13:42.869Z,640.8
2023-03-26T02:14:44.999Z,640.8
2023-03-26T02:15:47.024Z,640.9
2023-03-26T02:16:49.231Z,640.7
2023-03-26T02:17:51.641Z,640.9
2023-03-26T02:18:53.816Z,641.3
2023-03-26T02:19:55.963Z,641.2
2023-03-26T02:20:57.890Z,641.2
2023-03-26T02:21:59.811Z,641.2
2023-03-26T02:23:02.016Z,641.2
2023-03-26T02:24:05.183Z,641.6
2023-03-26T02:25:07.286Z,641.9
2023-03-26T02:26:09.200Z,641.8
2023-03-26T02:27:11.093Z,641.7
2023-03-26T02:28:13.182Z,642
2023-03-26T02:29:15.388Z,641.6
2023-03-26T02:30:17.389Z,641.5
2023-03-26T02:31:19.666Z,641.4
2023-03-26T02:32:21.829Z,641.5
2023-03-26T02:33:23.815Z,641.4
2023-03-26T02:34:25.880Z,641.9
2023-03-26T02:35:28.376Z,641.9
2023-03-26T02:36:30.865Z,641.5
2023-03-26T02:37:32.843Z,641.7
2023-03-26T02:38:35.043Z,641.6
2023-03-26T02:39:37.172Z,641.8
2023-03-26T02:40:39.078Z,642.1
2023-03-26T02:41:41.042Z,642.5
2023-03-26T02:42:43.228Z,642.8
2023-03-26T02:43:45.350Z,643
2023-03-26T02:44:47.264Z,643
2023-03-26T02:45:49.133Z,643.2
2023-03-26T02:46:51.228Z,643.1
2023-03-26T02:47:53.555Z,643.2
2023-03-26T02:48:55.700Z,643.2
2023-03-26T02:49:57.827Z,643.5
2023-03-26T02:50:59.910Z,643.6
2023-03-26T02:52:02.045Z,643.9
2023-03-26T02:53:03.930Z,643.8
2023-03-26T02:54:06.242Z,644
2023-03-26T02:55:08.188Z,643.7
2023-03-26T02:56:10.281Z,643.9
2023-03-26T02:57:12.655Z,643.7
2023-03-26T02:58:14.739Z,643.5
2023-03-26T02:59:16.842Z,644.3
2023-03-26T03:00:18.973Z,644.3
2023-03-26T03:01:21.285Z,644.5
2023-03-26T03:02:23.412Z,644.7
2023-03-26T03:03:25.798Z,644.7
2023-03-26T03:04:27.926Z,644.6
2023-03-26T03:05:30.110Z,645.5
2023-03-26T03:06:32.007Z,645.4
2023-03-26T03:07:33.881Z,645.9
2023-03-26T03:08:35.725Z,646.6
2023-03-26T03:09:37.915Z,646.7
2023-03-26T03:10:40.025Z,647.7
2023-03-26T03:11:41.916Z,647.5
2023-03-26T03:12:43.823Z,647.8
2023-03-26T03:13:45.945Z,647.9
2023-03-26T03:14:47.849Z,647.9
2023-03-26T03:15:49.919Z,647.8
2023-03-26T03:16:51.427Z,648
2023-03-26T03:17:53.923Z,648.4
2023-03-26T03:18:59.203Z,648.2
2023-03-26T03:20:00.911Z,648.7
2023-03-26T03:21:03.050Z,648.9
2023-03-26T03:22:05.218Z,648.7
2023-03-26T03:23:06.915Z,648.8
2023-03-26T03:24:09.005Z,649.6
2023-03-26T03:25:11.202Z,649.8
2023-03-26T03:26:13.078Z,649.3
2023-03-26T03:27:14.967Z,649.7
2023-03-26T03:28:17.032Z,650
2023-03-26T03:29:18.895Z,649.5
2023-03-26T03:30:21.042Z,650
2023-03-26T03:31:23.361Z,650.1
2023-03-26T03:32:25.774Z,649.7
2023-03-26T03:33:27.732Z,649.9
2023-03-26T03:34:29.820Z,650.1
2023-03-26T03:35:32.080Z,649.4
2023-03-26T03:36:34.015Z,650
2023-03-26T03:37:36.116Z,650.4
2023-03-26T03:38:38.241Z,650
2023-03-26T03:39:40.311Z,650.3
2023-03-26T03:40:42.729Z,650.2
2023-03-26T03:41:44.811Z,650.5
2023-03-26T03:42:46.693Z,650.6
2023-03-26T03:43:48.397Z,650.7
2023-03-26T03:44:50.468Z,650.3
2023-03-26T03:45:52.732Z,650.7
2023-03-26T03:46:54.822Z,650.2
2023-03-26T03:47:57.130Z,650.8
2023-03-26T03:48:59.286Z,650.6
2023-03-26T03:50:01.545Z,650.8
2023-03-26T03:51:03.454Z,651
2023-03-26T03:52:05.633Z,650.6
2023-03-26T03:53:07.764Z,650.6
2023-03-26T03:54:09.857Z,650.5
2023-03-26T03:55:12.025Z,650.8
2023-03-26T03:56:14.231Z,650.8
2023-03-26T03:57:15.925Z,650.8
2023-03-26T03:58:17.824Z,650.9
2023-03-26T03:59:19.915Z,650.6
2023-03-26T04:00:21.864Z,650.9
2023-03-26T04:01:24.021Z,651.2
2023-03-26T04:02:27.187Z,651.3
2023-03-26T04:04:34.442Z,651.9
2023-03-26T04:05:36.379Z,652.3
2023-03-26T04:06:38.256Z,652.4
2023-03-26T04:07:40.432Z,652.5
2023-03-26T04:08:42.146Z,652.4
2023-03-26T04:09:44.224Z,652.6
2023-03-26T04:10:46.308Z,652.5
2023-03-26T04:11:48.313Z,653.2
2023-03-26T04:12:50.233Z,653.3
2023-03-26T04:13:52.186Z,652.9
2023-03-26T04:14:54.272Z,652.7
2023-03-26T04:15:58.368Z,652.9
2023-03-26T04:17:00.716Z,653.2
2023-03-26T04:18:03.030Z,652.9
2023-03-26T04:19:05.115Z,653.5
2023-03-26T04:20:07.232Z,652.9
2023-03-26T04:21:09.170Z,653.1
2023-03-26T04:22:11.255Z,653.5
2023-03-26T04:23:13.129Z,653.3
2023-03-26T04:24:15.246Z,653.8
2023-03-26T04:25:16.810Z,653.6
2023-03-26T04:26:18.725Z,653.6
2023-03-26T04:27:20.937Z,653.7
2023-03-26T04:28:23.021Z,653.7
2023-03-26T04:29:25.090Z,653.8
2023-03-26T04:30:27.036Z,653.8
2023-03-26T04:31:29.425Z,653.5
2023-03-26T04:32:31.878Z,653.9
2023-03-26T04:33:34.012Z,653.6
2023-03-26T04:34:36.108Z,653.7
2023-03-26T04:35:38.291Z,654.1
2023-03-26T04:36:40.202Z,653.9
2023-03-26T04:37:41.593Z,654.3
2023-03-26T04:38:43.740Z,654.7
2023-03-26T04:39:45.847Z,654.6
2023-03-26T04:40:47.839Z,654.8
2023-03-26T04:41:49.952Z,655.4
2023-03-26T04:42:52.178Z,655.4
2023-03-26T04:43:54.268Z,655.4
2023-03-26T04:44:56.352Z,655.6
2023-03-26T04:45:58.784Z,656
2023-03-26T04:47:01.100Z,656.5
2023-03-26T04:48:03.595Z,656.6
2023-03-26T04:49:13.214Z,656.7
2023-03-26T04:50:15.499Z,656.2
2023-03-26T04:51:17.581Z,656.3
2023-03-26T04:52:19.730Z,655.7
2023-03-26T04:53:21.943Z,655.9
2023-03-26T04:54:24.021Z,656.2
2023-03-26T04:55:26.092Z,656.1
2023-03-26T04:56:27.977Z,656.4
2023-03-26T04:57:30.088Z,656.3
2023-03-26T04:58:32.095Z,656.7
2023-03-26T04:59:34.011Z,656.9
2023-03-26T05:00:35.988Z,657.1
2023-03-26T05:01:38.362Z,657.2
2023-03-26T05:02:40.457Z,657.5
2023-03-26T05:03:42.641Z,657.8
2023-03-26T05:04:45.017Z,657.7
2023-03-26T05:05:47.158Z,657.6
2023-03-26T05:06:49.219Z,657.9
2023-03-26T05:07:51.358Z,658
2023-03-26T05:08:53.272Z,657.9
2023-03-26T05:09:55.385Z,658.2
2023-03-26T05:10:58.566Z,658.4
2023-03-26T05:12:00.516Z,658.3
2023-03-26T05:13:02.431Z,658.3
2023-03-26T05:14:04.709Z,659
2023-03-26T05:15:06.611Z,659
2023-03-26T05:16:08.929Z,659.4
2023-03-26T05:17:11.030Z,659.1
2023-03-26T05:18:13.108Z,659.6
2023-03-26T05:19:15.179Z,659.5
2023-03-26T05:20:17.282Z,659
2023-03-26T05:21:19.162Z,659.4
2023-03-26T05:22:20.863Z,658.9
2023-03-26T05:23:22.951Z,659.2
2023-03-26T05:24:24.647Z,659.6
2023-03-26T05:25:26.968Z,659.2
2023-03-26T05:26:28.903Z,659.2
2023-03-26T05:27:30.978Z,659.3
2023-03-26T05:28:32.678Z,659.1
2023-03-26T05:29:34.886Z,658.9
2023-03-26T05:30:36.976Z,658.7
2023-03-26T05:31:39.065Z,659.1
2023-03-26T05:32:41.612Z,658.4
2023-03-26T05:33:44.458Z,658.7
2023-03-26T05:34:46.474Z,659.1
2023-03-26T05:35:48.842Z,659.2
2023-03-26T05:36:50.935Z,659.5
2023-03-26T05:37:52.725Z,659.5
2023-03-26T05:38:54.793Z,659.4
2023-03-26T05:39:56.947Z,659.4
2023-03-26T05:40:59.062Z,659.8
2023-03-26T05:42:01.176Z,659.8
2023-03-26T05:43:03.289Z,659.8
2023-03-26T05:44:04.988Z,660
2023-03-26T05:45:07.213Z,660
2023-03-26T05:46:09.697Z,660.7
2023-03-26T05:47:11.425Z,660.6
2023-03-26T05:48:13.567Z,661.2
2023-03-26T05:49:15.687Z,661.3
2023-03-26T05:50:17.780Z,661.7
2023-03-26T05:51:19.863Z,661.8
2023-03-26T05:52:21.764Z,662.5
2023-03-26T05:53:23.881Z,662.2
2023-03-26T05:54:25.754Z,662.6
2023-03-26T05:55:27.848Z,662.7
2023-03-26T05:56:29.349Z,662.6
2023-03-26T05:57:31.471Z,662.7
2023-03-26T05:58:33.395Z,662.9
2023-03-26T05:59:35.135Z,663.5
2023-03-26T06:00:37.383Z,663.3
2023-03-26T06:01:39.491Z,663.7
2023-03-26T06:02:41.616Z,663.8
2023-03-26T06:03:43.834Z,664.4
2023-03-26T06:04:46.462Z,664.7
2023-03-26T06:05:48.393Z,664.7
2023-03-26T06:06:50.276Z,664.2
2023-03-26T06:07:52.167Z,664.3
2023-03-26T06:09:59.281Z,664.6
2023-03-26T06:11:01.457Z,664.5
2023-03-26T06:12:02.978Z,664.8
2023-03-26T06:13:05.117Z,664.6
2023-03-26T06:14:07.211Z,664.8
2023-03-26T06:15:08.956Z,664.3
2023-03-26T06:17:15.958Z,664.4
2023-03-26T06:18:18.023Z,664.1
2023-03-26T06:19:19.903Z,664.7
2023-03-26T06:20:21.614Z,664.4
2023-03-26T06:21:23.689Z,664.3
2023-03-26T06:22:25.589Z,664.6
2023-03-26T06:23:27.669Z,664.9
2023-03-26T06:24:29.754Z,664.6
2023-03-26T06:25:31.629Z,665.5
2023-03-26T06:26:33.350Z,665.5
2023-03-26T06:27:35.435Z,665.3
2023-03-26T06:28:37.576Z,665.9
2023-03-26T06:29:39.670Z,665.3
2023-03-26T06:30:41.855Z,665.2
2023-03-26T06:31:43.647Z,664.9
2023-03-26T06:32:46.099Z,664.6
2023-03-26T06:33:48.036Z,664.8
2023-03-26T06:34:50.126Z,665
2023-03-26T06:35:52.445Z,664.9
2023-03-26T06:36:54.583Z,664.8
2023-03-26T06:37:56.658Z,665.5
2023-03-26T06:38:58.358Z,666.1
2023-03-26T06:40:00.276Z,666.1
2023-03-26T06:41:02.241Z,665.7
2023-03-26T06:42:04.170Z,665.6
2023-03-26T06:44:11.316Z,664.9
2023-03-26T06:45:13.419Z,664.5
2023-03-26T06:46:15.791Z,664.7
2023-03-26T06:47:17.724Z,665.2
2023-03-26T06:48:20.056Z,665.2
2023-03-26T06:49:22.176Z,665.8
2023-03-26T06:50:24.272Z,666
2023-03-26T06:51:26.325Z,665.6
2023-03-26T06:52:28.456Z,666
2023-03-26T06:53:30.263Z,665.8
2023-03-26T06:54:32.192Z,665.6
2023-03-26T06:55:34.353Z,665.8
2023-03-26T06:56:36.678Z,665.5
2023-03-26T06:57:38.806Z,665.5
2023-03-26T06:58:40.939Z,665.5
2023-03-26T06:59:42.696Z,665.8
2023-03-26T07:00:44.983Z,666.1
2023-03-26T07:01:48.445Z,665.8
2023-03-26T07:02:50.846Z,665.8
2023-03-26T07:03:53.291Z,666.4
2023-03-26T07:04:55.210Z,666.4
2023-03-26T07:05:57.344Z,666.4
2023-03-26T07:06:59.426Z,666.5
2023-03-26T07:08:01.151Z,666.6
2023-03-26T07:09:03.288Z,666.7
2023-03-26T07:10:05.407Z,667
2023-03-26T07:11:07.522Z,666.8
2023-03-26T07:12:09.610Z,666.9
2023-03-26T07:13:11.371Z,667.1
2023-03-26T07:14:13.522Z,667.3
2023-03-26T07:15:15.435Z,667.1
2023-03-26T07:16:17.702Z,667
2023-03-26T07:17:19.801Z,667.2
2023-03-26T07:18:21.555Z,667.5
2023-03-26T07:19:23.592Z,667.6
2023-03-26T07:20:25.535Z,667.9
2023-03-26T07:21:27.685Z,668.5
2023-03-26T07:22:29.809Z,668.6
2023-03-26T07:23:31.886Z,669.2
2023-03-26T07:24:33.998Z,669.2
2023-03-26T07:25:36.496Z,669.5
2023-03-26T07:26:38.579Z,670.2
2023-03-26T07:27:40.372Z,670.5
2023-03-26T07:28:42.306Z,671.1
2023-03-26T07:29:49.042Z,671.4
2023-03-26T07:30:51.178Z,672
2023-03-26T07:31:53.454Z,671.3
2023-03-26T07:32:55.608Z,671.9
2023-03-26T07:33:57.583Z,672.5
2023-03-26T07:34:59.586Z,672.9
2023-03-26T07:36:01.782Z,673.4
2023-03-26T07:37:04.082Z,673.6
2023-03-26T07:38:06.170Z,673.9
2023-03-26T07:39:07.883Z,673.6
2023-03-26T07:40:09.579Z,674.2
2023-03-26T07:41:11.524Z,674.9
2023-03-26T07:42:13.053Z,675.6
2023-03-26T07:43:14.959Z,675.4
2023-03-26T07:44:16.910Z,675.8
2023-03-26T07:45:19.021Z,675.4
2023-03-26T07:46:21.342Z,675.8
2023-03-26T07:47:23.440Z,675.7
2023-03-26T07:48:25.358Z,676
2023-03-26T07:49:27.801Z,676.5
2023-03-26T07:50:29.616Z,676.9
2023-03-26T07:51:31.719Z,677.3
2023-03-26T07:52:33.813Z,676.9
2023-03-26T07:53:35.692Z,677.7
2023-03-26T07:54:37.620Z,677.6
2023-03-26T07:55:39.728Z,677.9
2023-03-26T07:56:42.806Z,678.2
2023-03-26T07:57:45.082Z,678.4
2023-03-26T07:58:46.981Z,678.2
2023-03-26T07:59:49.064Z,678.4
2023-03-26T08:00:51.153Z,678.7
2023-03-26T08:01:53.272Z,679.3
2023-03-26T08:02:55.789Z,679.4
2023-03-26T08:03:58.782Z,679.6
2023-03-26T08:05:05.907Z,679.9
2023-03-26T08:06:08.167Z,680.2
2023-03-26T08:07:10.151Z,680.1
2023-03-26T08:08:12.404Z,680.4
2023-03-26T08:09:14.289Z,680.9
2023-03-26T08:10:16.481Z,681.1
2023-03-26T08:11:18.600Z,681.7
2023-03-26T08:12:20.748Z,681.6
2023-03-26T08:13:22.860Z,681.5
2023-03-26T08:14:24.755Z,681.2
2023-03-26T08:15:27.108Z,681
2023-03-26T08:16:29.034Z,680.7
2023-03-26T08:17:33.242Z,680.7
2023-03-26T08:18:35.393Z,680.5
2023-03-26T08:19:37.282Z,680.7
2023-03-26T08:20:38.796Z,681.1
2023-03-26T08:21:41.018Z,681.4
2023-03-26T08:22:43.115Z,681.3
2023-03-26T08:24:49.995Z,681.3
2023-03-26T08:25:52.124Z,681.5
2023-03-26T08:26:54.232Z,681.3
2023-03-26T08:27:56.355Z,681.5
2023-03-26T08:28:58.450Z,681.5
2023-03-26T08:30:00.580Z,681.8
2023-03-26T08:31:02.707Z,681.5
2023-03-26T08:32:04.848Z,681.6
2023-03-26T08:33:07.223Z,681.8
2023-03-26T08:34:09.394Z,682.4
2023-03-26T08:35:11.304Z,682.4
2023-03-26T08:36:13.083Z,682.1
2023-03-26T08:37:15.320Z,682
2023-03-26T08:38:17.270Z,681.7
2023-03-26T08:39:19.173Z,681.4
2023-03-26T08:40:20.905Z,681.4
2023-03-26T08:41:22.789Z,681
2023-03-26T08:42:24.882Z,681.1
2023-03-26T08:43:27.040Z,681.1
2023-03-26T08:44:28.947Z,681.3
2023-03-26T08:45:31.039Z,681.5
2023-03-26T08:46:33.341Z,681.8
2023-03-26T08:47:35.462Z,681.1
2023-03-26T08:48:37.193Z,681.3
2023-03-26T08:49:39.308Z,681.2
2023-03-26T08:50:41.398Z,681
2023-03-26T08:51:43.325Z,680.6
2023-03-26T08:52:45.510Z,680.6
2023-03-26T08:53:47.612Z,680.9
2023-03-26T08:54:49.561Z,681
2023-03-26T08:55:51.667Z,681.5
2023-03-26T08:56:54.233Z,681.2
2023-03-26T08:57:56.217Z,681.7
2023-03-26T08:58:58.177Z,681.8
2023-03-26T09:01:06.775Z,681.7
2023-03-26T09:02:09.450Z,681.7
2023-03-26T09:03:11.707Z,681.5
2023-03-26T09:04:13.824Z,682.2
2023-03-26T09:05:15.971Z,682
2023-03-26T09:06:18.074Z,682.4
2023-03-26T09:07:19.985Z,682.8
2023-03-26T09:08:22.236Z,683.3
2023-03-26T09:09:24.041Z,683.4
2023-03-26T09:10:26.165Z,683.5
2023-03-26T09:11:28.114Z,683.1
2023-03-26T09:12:30.066Z,683
2023-03-26T09:13:32.182Z,683.2
2023-03-26T09:14:34.104Z,683.1
2023-03-26T09:15:36.282Z,683.2
2023-03-26T09:16:38.464Z,683.6
2023-03-26T09:17:40.884Z,683.9
2023-03-26T09:18:42.809Z,684.3
2023-03-26T09:19:44.956Z,684.7
2023-03-26T09:20:46.900Z,684.7
2023-03-26T09:21:49.030Z,685.2
2023-03-26T09:22:50.941Z,685.2
2023-03-26T09:23:53.001Z,685.3
2023-03-26T09:24:54.732Z,685.7
2023-03-26T09:25:56.916Z,685.6
2023-03-26T09:26:59.062Z,685.7
2023-03-26T09:28:01.174Z,686.2
2023-03-26T09:29:03.126Z,686.2
2023-03-26T09:30:05.212Z,686.5
2023-03-26T09:31:07.559Z,686.5
2023-03-26T09:32:09.552Z,685.9
2023-03-26T09:33:11.493Z,685.6
2023-03-26T09:34:13.407Z,685.1
2023-03-26T09:35:15.893Z,685.2
2023-03-26T09:36:18.078Z,684.8
2023-03-26T09:37:20.051Z,684.8
2023-03-26T09:38:22.186Z,684.6
2023-03-26T09:39:24.309Z,684.5
2023-03-26T09:40:26.453Z,684.4
2023-03-26T09:41:28.538Z,684.7
2023-03-26T09:42:30.444Z,683.8
2023-03-26T09:43:32.537Z,683.8
2023-03-26T09:44:34.653Z,684.3
2023-03-26T09:45:37.083Z,684.1
2023-03-26T09:46:38.782Z,684.4
2023-03-26T09:47:41.254Z,684.7
2023-03-26T09:48:43.380Z,684.9
2023-03-26T09:49:45.292Z,685.6
2023-03-26T09:50:47.287Z,685.8
2023-03-26T09:51:49.259Z,685.8
2023-03-26T09:52:51.194Z,686.3
2023-03-26T09:53:53.325Z,686.4
2023-03-26T09:54:55.512Z,686.2
2023-03-26T09:55:58.450Z,687.3
2023-03-26T09:57:00.728Z,687.3
2023-03-26T09:58:03.142Z,686.8
2023-03-26T09:59:05.435Z,686.1
2023-03-26T10:00:07.664Z,686.3
2023-03-26T10:01:10.108Z,686.4
2023-03-26T10:02:12.263Z,687.3
2023-03-26T10:03:14.774Z,687.9
2023-03-26T10:04:16.947Z,688.7
2023-03-26T10:05:19.118Z,689
2023-03-26T10:06:20.877Z,689.1
2023-03-26T10:07:22.787Z,689.1
2023-03-26T10:08:24.892Z,688.8
2023-03-26T10:09:26.993Z,689.2
2023-03-26T10:10:29.213Z,689.7
2023-03-26T10:11:30.932Z,689.7
2023-03-26T10:12:33.074Z,689.7
2023-03-26T10:13:35.216Z,690
2023-03-26T10:14:37.146Z,690.6
2023-03-26T10:15:39.238Z,690.4
2023-03-26T10:16:41.566Z,689.7
2023-03-26T10:17:43.799Z,688.8
2023-03-26T10:18:45.921Z,688.6
2023-03-26T10:19:48.014Z,688.9
2023-03-26T10:20:50.219Z,689
2023-03-26T10:21:52.457Z,688.8
2023-03-26T10:22:54.180Z,688.5
2023-03-26T10:23:56.101Z,688.4
2023-03-26T10:24:58.246Z,688.6
2023-03-26T10:26:00.445Z,688.6
2023-03-26T10:28:07.505Z,687.6
2023-03-26T10:29:09.228Z,687.9
2023-03-26T10:30:11.410Z,687.8
2023-03-26T10:31:13.761Z,688.3
2023-03-26T10:32:15.467Z,688.6
2023-03-26T10:33:17.514Z,688.5
2023-03-26T10:35:24.782Z,687.5
2023-03-26T10:36:26.915Z,686.6
2023-03-26T10:37:29.078Z,686.5
2023-03-26T10:38:31.211Z,686
2023-03-26T10:40:38.295Z,686.4
2023-03-26T10:41:40.545Z,685.8
2023-03-26T10:42:42.697Z,685.4
2023-03-26T10:44:51.474Z,685.8
2023-03-26T10:45:53.808Z,685
2023-03-26T10:46:55.965Z,685.5
2023-03-26T10:47:58.187Z,685.3
2023-03-26T10:49:00.346Z,685.9
2023-03-26T10:50:02.526Z,686.2
2023-03-26T10:51:04.620Z,687.3
2023-03-26T10:52:06.788Z,687.6
2023-03-26T10:53:08.623Z,687.3
2023-03-26T10:54:10.731Z,687.8
2023-03-26T10:55:12.626Z,688.1
2023-03-26T10:56:14.962Z,687.8
2023-03-26T10:57:17.488Z,688.8
2023-03-26T10:58:19.692Z,688.6
2023-03-26T10:59:21.613Z,689
2023-03-26T11:00:23.567Z,689.4
2023-03-26T11:01:26.019Z,689.5
2023-03-26T11:03:32.935Z,689.7
2023-03-26T11:04:35.037Z,690.2
2023-03-26T11:05:37.299Z,690.5
2023-03-26T11:06:39.263Z,690.2
2023-03-26T11:07:41.376Z,690.2
2023-03-26T11:08:43.540Z,690.8
2023-03-26T11:09:45.636Z,690.4
2023-03-26T11:10:47.731Z,690.2
2023-03-26T11:11:49.825Z,689.7
2023-03-26T11:12:52.058Z,689.4
2023-03-26T11:13:54.173Z,689.9
2023-03-26T11:14:56.295Z,689.6
2023-03-26T11:15:58.463Z,690.1
2023-03-26T11:17:00.346Z,690
2023-03-26T11:18:02.739Z,690
2023-03-26T11:20:09.652Z,689.8
2023-03-26T11:22:16.802Z,690
2023-03-26T11:23:18.815Z,690.4
2023-03-26T11:24:20.544Z,690.4
2023-03-26T11:25:22.684Z,689.6
2023-03-26T11:26:24.822Z,690.4
2023-03-26T11:27:28.188Z,690.4
2023-03-26T11:28:30.226Z,690.6
2023-03-26T11:29:34.929Z,691.3
2023-03-26T11:30:37.050Z,690.4
2023-03-26T11:31:39.402Z,690.6
2023-03-26T11:32:41.760Z,690.2
2023-03-26T11:34:48.858Z,690.1
2023-03-26T11:35:51.287Z,690
2023-03-26T11:36:53.494Z,690.3
2023-03-26T11:37:56.366Z,690.8
2023-03-26T11:38:58.308Z,690.6
2023-03-26T11:40:00.280Z,690.9
2023-03-26T11:41:02.491Z,690.9
2023-03-26T11:42:04.443Z,690.6
2023-03-26T11:43:06.565Z,690.5
2023-03-26T11:44:08.884Z,689.5
2023-03-26T11:45:11.012Z,690.7
2023-03-26T11:46:13.198Z,690.7
2023-03-26T11:47:15.126Z,690.5
2023-03-26T11:48:17.203Z,690.5
2023-03-26T11:49:19.130Z,690.5
2023-03-26T11:50:20.850Z,691.3
2023-03-26T11:51:22.771Z,691.7
2023-03-26T11:52:25.980Z,691.4
2023-03-26T11:53:28.118Z,691.4
2023-03-26T11:54:29.997Z,691.8
2023-03-26T11:55:32.267Z,691.8
2023-03-26T11:56:34.823Z,691.4
2023-03-26T11:57:36.817Z,691.1
2023-03-26T11:58:38.943Z,691
2023-03-26T12:00:46.108Z,693.6
2023-03-26T12:01:48.399Z,693.1
2023-03-26T12:02:50.737Z,693.6
2023-03-26T12:03:52.856Z,693.8
2023-03-26T12:04:55.019Z,693.8
2023-03-26T12:05:57.117Z,693.9
2023-03-26T12:06:59.049Z,693.9
2023-03-26T12:08:01.217Z,693.4
2023-03-26T12:09:03.329Z,693.5
2023-03-26T12:11:10.466Z,693.5
2023-03-26T12:12:12.363Z,693.5
2023-03-26T12:13:14.484Z,693.5
2023-03-26T12:14:16.595Z,693.4
2023-03-26T12:15:18.685Z,692.9
2023-03-26T12:16:21.339Z,693
2023-03-26T12:18:28.291Z,693.3
2023-03-26T12:19:30.210Z,693.4
2023-03-26T12:20:32.322Z,693.4
2023-03-26T12:21:34.263Z,693.9
2023-03-26T12:22:36.394Z,693.7
2023-03-26T12:23:38.552Z,693.9
2023-03-26T12:24:40.435Z,693.8
2023-03-26T12:25:42.147Z,694
2023-03-26T12:26:44.160Z,694.6
2023-03-26T12:27:46.252Z,694.1
2023-03-26T12:28:47.976Z,693.8
2023-03-26T12:29:49.872Z,694.7
2023-03-26T12:30:51.555Z,694.7
2023-03-26T12:31:54.254Z,695.4
2023-03-26T12:32:56.580Z,695.7
2023-03-26T12:34:00.692Z,696.2
2023-03-26T12:35:02.789Z,695.6
2023-03-26T12:36:05.054Z,695.7
2023-03-26T12:37:07.230Z,695.8
2023-03-26T12:38:09.375Z,695.5
2023-03-26T12:45:41.697Z,696
2023-03-26T12:48:54.394Z,696.2
2023-03-26T12:49:56.188Z,696
2023-03-26T12:50:59.573Z,696.2
2023-03-26T12:52:01.495Z,695.7
2023-03-26T12:53:03.603Z,695.9
2023-03-26T12:54:05.543Z,696.4
2023-03-26T12:56:12.738Z,696.7
2023-03-26T12:57:15.128Z,696.9
2023-03-26T12:58:16.764Z,696.9
2023-03-26T12:59:18.985Z,696.6
2023-03-26T13:00:20.901Z,696.9
2023-03-26T13:01:23.147Z,696.8
2023-03-26T13:02:25.727Z,696.7
2023-03-26T13:03:28.195Z,697.4
2023-03-26T13:04:30.596Z,696.8
2023-03-26T13:05:32.517Z,696.8
2023-03-26T13:07:39.394Z,697
2023-03-26T13:08:41.581Z,696.7
2023-03-26T13:09:43.680Z,697.6
2023-03-26T13:10:45.379Z,696.8
2023-03-26T13:11:47.073Z,697.4
2023-03-26T13:12:48.966Z,698.1
2023-03-26T13:13:51.142Z,697.7
2023-03-26T13:14:53.282Z,698.1
2023-03-26T13:15:55.253Z,698.5
2023-03-26T13:16:57.481Z,697.8
2023-03-26T13:17:59.941Z,697.7
2023-03-26T13:19:02.049Z,697.6
2023-03-26T13:20:04.250Z,698
2023-03-26T13:21:06.864Z,697.9
2023-03-26T13:22:09.060Z,698.1
2023-03-26T13:23:10.986Z,698.1
2023-03-26T13:24:12.941Z,697.8
2023-03-26T13:25:14.631Z,697.3
2023-03-26T13:26:16.750Z,697.2
2023-03-26T13:27:18.705Z,697.5
2023-03-26T13:28:20.653Z,697.9
2023-03-26T13:29:22.796Z,697.6
2023-03-26T13:30:24.727Z,697.7
2023-03-26T13:31:27.261Z,697.9
2023-03-26T13:32:29.588Z,698.1
2023-03-26T13:33:31.720Z,697.7
2023-03-26T13:34:33.645Z,697.9
2023-03-26T13:35:36.165Z,697.7
2023-03-26T13:36:38.729Z,697.4
2023-03-26T13:37:40.682Z,697.4
2023-03-26T13:39:48.806Z,697.9
2023-03-26T13:40:50.923Z,698.1
2023-03-26T13:41:52.828Z,698.2
2023-03-26T13:42:58.058Z,698.8
2023-03-26T13:43:59.734Z,698.5
2023-03-26T13:46:06.788Z,698.5
2023-03-26T13:47:08.781Z,698.7
2023-03-26T13:48:10.887Z,699.2
2023-03-26T13:49:13.061Z,698.6
2023-03-26T13:50:15.235Z,699.1
2023-03-26T13:51:17.424Z,699.5
2023-03-26T13:52:19.528Z,699.8
2023-03-26T13:53:21.716Z,699.9
2023-03-26T13:54:23.816Z,699.4
2023-03-26T13:55:25.963Z,700.2
2023-03-26T13:56:28.075Z,700.1
2023-03-26T13:57:30.228Z,700.4